createdAt,value
2023-04-12T00:01:23.866Z,95710.63
2023-04-12T00:04:37.170Z,95717.47
2023-04-12T00:07:43.168Z,95719.13
2023-04-12T00:10:48.576Z,95718.16
2023-04-12T00:13:59.229Z,95705.72
2023-04-12T00:17:14.286Z,95702.09
2023-04-12T00:20:25.864Z,95691.31
2023-04-12T00:23:42.256Z,95695.63
2023-04-12T00:26:48.435Z,95694.66
2023-04-12T00:29:52.880Z,95696.19
2023-04-12T00:32:58.331Z,95690.69
2023-04-12T00:36:05.144Z,95679.28
2023-04-12T00:39:16.770Z,95673.78
2023-04-12T00:42:21.625Z,95672.81
2023-04-12T00:45:26.641Z,95671.00
2023-04-12T00:48:34.827Z,95671.00
2023-04-12T00:51:47.164Z,95666.00
2023-04-12T00:58:19.537Z,95663.72
2023-04-12T01:01:22.750Z,95675.03
2023-04-12T01:04:29.045Z,95670.56
2023-04-12T01:07:50.652Z,95669.56
2023-04-12T01:11:20.285Z,95671.22
2023-04-12T01:15:14.555Z,95688.00
2023-04-12T01:18:41.948Z,95684.50
2023-04-12T01:22:27.620Z,95671.38
2023-04-12T01:26:12.389Z,95670.38
2023-04-12T01:29:22.271Z,95679.34
2023-04-12T01:32:26.003Z,95670.84
2023-04-12T01:35:32.851Z,95672.66
2023-04-12T01:38:42.326Z,95671.84
2023-04-12T01:41:51.773Z,95661.22
2023-04-12T01:44:57.867Z,95665.53
2023-04-12T01:48:07.661Z,95671.00
2023-04-12T01:51:19.828Z,95663.03
2023-04-12T01:54:30.316Z,95651.56
2023-04-12T01:57:36.464Z,95655.22
2023-04-12T02:00:41.918Z,95649.06
2023-04-12T02:03:51.995Z,95646.59
2023-04-12T02:06:59.220Z,95640.13
2023-04-12T02:10:04.701Z,95640.81
2023-04-12T02:13:08.997Z,95633.69
2023-04-12T02:16:13.003Z,95636.47
2023-04-12T02:19:18.611Z,95621.84
2023-04-12T02:22:24.444Z,95628.53
2023-04-12T02:25:29.990Z,95633.41
2023-04-12T02:28:37.623Z,95628.91
2023-04-12T02:31:56.363Z,95624.41
2023-04-12T02:35:05.504Z,95611.16
2023-04-12T02:38:17.193Z,95610.16
2023-04-12T02:41:21.561Z,95610.00
2023-04-12T02:44:34.275Z,95603.72
2023-04-12T02:47:49.842Z,95604.41
2023-04-12T02:50:59.148Z,95596.59
2023-04-12T02:54:06.273Z,95592.13
2023-04-12T02:57:24.990Z,95585.13
2023-04-12T03:00:41.402Z,95577.19
2023-04-12T03:03:47.553Z,95576.19
2023-04-12T03:07:15.684Z,95566.41
2023-04-12T03:10:36.445Z,95566.69
2023-04-12T03:13:41.790Z,95555.25
2023-04-12T03:16:47.491Z,95557.06
2023-04-12T03:19:59.514Z,95555.25
2023-04-12T03:23:05.455Z,95548.94
2023-04-12T03:26:19.987Z,95535.81
2023-04-12T03:29:46.113Z,95526.03
2023-04-12T03:32:52.032Z,95534.00
2023-04-12T03:35:57.713Z,95527.03
2023-04-12T03:39:04.291Z,95533.31
2023-04-12T03:42:32.392Z,95525.34
2023-04-12T03:45:52.716Z,95522.19
2023-04-12T03:48:58.232Z,95516.19
2023-04-12T03:52:04.411Z,95507.72
2023-04-12T03:55:16.885Z,95505.34
2023-04-12T03:58:26.148Z,95495.88
2023-04-12T04:01:31.480Z,95492.69
2023-04-12T04:04:37.058Z,95489.50
2023-04-12T04:07:51.712Z,95485.03
2023-04-12T04:10:57.143Z,95474.75
2023-04-12T04:14:13.711Z,95477.69
2023-04-12T04:17:26.728Z,95477.84
2023-04-12T04:20:39.949Z,95461.25
2023-04-12T04:23:53.613Z,95456.25
2023-04-12T04:27:00.850Z,95450.25
2023-04-12T04:30:10.931Z,95453.75
2023-04-12T04:33:30.539Z,95456.25
2023-04-12T04:36:45.810Z,95445.97
2023-04-12T04:39:58.055Z,95451.56
2023-04-12T04:43:00.954Z,95446.94
2023-04-12T04:46:33.141Z,95440.66
2023-04-12T04:49:46.170Z,95440.47
2023-04-12T04:53:01.326Z,95433.50
2023-04-12T04:56:16.190Z,95432.50
2023-04-12T04:59:31.888Z,95419.94
2023-04-12T05:02:48.835Z,95421.47
2023-04-12T05:06:05.427Z,95429.09
2023-04-12T05:09:12.303Z,95416.50
2023-04-12T05:12:25.002Z,95415.53
2023-04-12T05:15:32.351Z,95408.25
2023-04-12T05:18:39.492Z,95405.28
2023-04-12T05:21:44.056Z,95406.09
2023-04-12T05:24:48.809Z,95396.63
2023-04-12T05:27:53.126Z,95410.78
2023-04-12T05:30:59.707Z,95401.00
2023-04-12T05:34:13.862Z,95388.91
2023-04-12T05:37:37.200Z,95388.41
2023-04-12T05:40:41.677Z,95391.91
2023-04-12T05:43:45.050Z,95381.13
2023-04-12T05:46:49.922Z,95383.78
2023-04-12T05:49:53.982Z,95379.31
2023-04-12T05:52:59.769Z,95382.13
2023-04-12T05:56:08.946Z,95384.78
2023-04-12T05:59:15.005Z,95378.78
2023-04-12T06:02:20.193Z,95379.75
2023-04-12T06:08:40.461Z,95377.81
2023-04-12T06:11:45.831Z,95372.78
2023-04-12T06:14:51.920Z,95382.13
2023-04-12T06:17:57.292Z,95369.69
2023-04-12T06:24:29.004Z,95371.50
2023-04-12T06:27:41.299Z,95365.22
2023-04-12T06:30:45.862Z,95360.88
2023-04-12T06:33:50.772Z,95354.75
2023-04-12T06:36:55.205Z,95356.91
2023-04-12T06:40:00.964Z,95356.63
2023-04-12T06:43:04.860Z,95352.78
2023-04-12T06:46:11.355Z,95344.38
2023-04-12T06:49:25.385Z,95329.44
2023-04-12T06:52:39.357Z,95328.09
2023-04-12T06:55:41.802Z,95334.78
2023-04-12T06:58:45.314Z,95319.53
2023-04-12T07:01:50.894Z,95327.69
2023-04-12T07:08:24.811Z,95320.56
2023-04-12T07:11:32.304Z,95318.59
2023-04-12T07:14:39.163Z,95321.09
2023-04-12T07:17:48.416Z,95320.78
2023-04-12T07:21:05.131Z,95308.00
2023-04-12T07:24:09.808Z,95285.91
2023-04-12T07:27:15.425Z,95284.91
2023-04-12T07:30:22.343Z,95285.25
2023-04-12T07:33:33.887Z,95262.69
2023-04-12T07:36:46.006Z,95248.88
2023-04-12T07:39:52.492Z,95250.06
2023-04-12T07:42:58.007Z,95248.41
2023-04-12T07:46:10.229Z,95232.63
2023-04-12T07:49:18.122Z,95245.09
2023-04-12T07:52:28.850Z,95241.47
2023-04-12T07:55:33.874Z,95236.47
2023-04-12T07:58:46.359Z,95231.16
2023-04-12T08:01:51.671Z,95227.16
2023-04-12T08:04:57.424Z,95219.84
2023-04-12T08:08:00.034Z,95220.03
2023-04-12T08:11:09.307Z,95216.06
2023-04-12T08:14:12.848Z,95204.25
2023-04-12T08:17:25.048Z,95206.56
2023-04-12T08:20:29.430Z,95187.28
2023-04-12T08:23:40.708Z,95179.00
2023-04-12T08:26:46.343Z,95177.00
2023-04-12T08:29:53.038Z,95161.03
2023-04-12T08:32:59.256Z,95167.19
2023-04-12T08:36:03.323Z,95169.34
2023-04-12T08:39:09.033Z,95180.31
2023-04-12T08:42:13.367Z,95168.16
2023-04-12T08:45:17.494Z,95137.06
2023-04-12T08:48:26.421Z,95137.06
2023-04-12T08:51:31.814Z,95166.81
2023-04-12T08:54:36.241Z,95145.69
2023-04-12T08:57:42.587Z,95146.00
2023-04-12T09:00:56.730Z,95147.25
2023-04-12T09:07:27.263Z,95142.16
2023-04-12T09:10:33.534Z,95144.28
2023-04-12T09:13:38.330Z,95132.59
2023-04-12T09:16:43.187Z,95118.03
2023-04-12T09:19:48.846Z,95119.47
2023-04-12T09:22:54.840Z,95116.09
2023-04-12T09:25:59.155Z,95110.53
2023-04-12T09:29:04.639Z,95108.44
2023-04-12T09:32:13.096Z,95100.91
2023-04-12T09:35:17.548Z,95087.44
2023-04-12T09:38:28.724Z,95083.31
2023-04-12T09:41:42.294Z,95067.41
2023-04-12T09:44:46.394Z,95064.13
2023-04-12T09:47:51.002Z,95064.13
2023-04-12T09:51:02.656Z,95058.19
2023-04-12T09:54:20.603Z,95058.53
2023-04-12T09:57:29.481Z,95058.53
2023-04-12T10:00:42.028Z,95054.28
2023-04-12T10:03:46.774Z,95054.19
2023-04-12T10:06:58.306Z,95043.56
2023-04-12T10:10:12.937Z,95039.78
2023-04-12T10:13:18.744Z,95028.94
2023-04-12T10:16:25.558Z,95030.56
2023-04-12T10:19:33.386Z,95019.06
2023-04-12T10:22:39.893Z,95019.72
2023-04-12T10:25:48.432Z,95016.50
2023-04-12T10:29:35.998Z,95010.94
2023-04-12T10:32:42.115Z,94988.84
2023-04-12T10:36:12.689Z,94989.47
2023-04-12T10:39:24.396Z,94989.28
2023-04-12T10:42:31.525Z,94992.59
2023-04-12T10:45:38.284Z,94998.38
2023-04-12T10:48:56.409Z,94991.19
2023-04-12T10:52:27.773Z,94998.97
2023-04-12T10:55:40.231Z,94984.63
2023-04-12T10:58:59.183Z,94991.06
2023-04-12T11:02:19.334Z,94976.50
2023-04-12T11:09:35.480Z,94978.88
2023-04-12T11:12:39.819Z,94977.09
2023-04-12T11:15:44.352Z,94971.28
2023-04-12T11:18:53.205Z,94968.66
2023-04-12T11:21:59.409Z,94966.22
2023-04-12T11:25:03.427Z,94967.09
2023-04-12T11:28:21.159Z,94957.91
2023-04-12T11:31:33.368Z,94961.25
2023-04-12T11:34:45.881Z,94958.81
2023-04-12T11:37:57.181Z,94957.00
2023-04-12T11:41:04.860Z,94963.22
2023-04-12T11:44:07.785Z,94955.22
2023-04-12T11:47:22.418Z,94963.03
2023-04-12T11:50:38.116Z,94957.91
2023-04-12T11:53:48.303Z,94953.22
2023-04-12T11:56:55.489Z,94947.88
2023-04-12T12:00:01.535Z,94945.00
2023-04-12T12:03:08.618Z,94942.38
2023-04-12T12:06:18.855Z,94949.03
2023-04-12T12:09:34.961Z,94948.03
2023-04-12T12:12:46.676Z,94947.63
2023-04-12T12:15:51.873Z,94949.28
2023-04-12T12:22:26.101Z,94939.22
2023-04-12T12:25:31.941Z,94929.16
2023-04-12T12:28:38.465Z,94928.53
2023-04-12T12:31:53.271Z,94919.06
2023-04-12T12:34:59.829Z,94908.75
2023-04-12T12:38:11.423Z,94914.91
2023-04-12T12:41:26.161Z,94914.31
2023-04-12T12:44:28.350Z,94916.81
2023-04-12T12:47:32.638Z,94904.00
2023-04-12T12:50:38.492Z,94895.13
2023-04-12T12:53:42.561Z,94900.47
2023-04-12T12:56:48.785Z,94897.59
2023-04-12T12:59:52.297Z,94886.28
2023-04-12T13:06:21.323Z,94874.31
2023-04-12T13:09:25.851Z,94877.19
2023-04-12T13:12:30.635Z,94869.16
2023-04-12T13:15:35.559Z,94868.13
2023-04-12T13:18:40.596Z,94868.13
2023-04-12T13:21:44.920Z,94858.03
2023-04-12T13:24:50.264Z,94860.72
2023-04-12T13:27:56.226Z,94845.00
2023-04-12T13:31:05.624Z,94833.25
2023-04-12T13:34:10.416Z,94833.00
2023-04-12T13:37:14.718Z,94817.91
2023-04-12T13:40:17.190Z,94811.06
2023-04-12T13:43:22.233Z,94819.22
2023-04-12T13:46:24.963Z,94797.44
2023-04-12T13:49:27.391Z,94812.50
2023-04-12T13:52:31.747Z,94811.00
2023-04-12T13:55:38.116Z,94798.06
2023-04-12T13:59:02.370Z,94808.59
2023-04-12T14:02:05.568Z,94790.25
2023-04-12T14:05:09.219Z,94795.28
2023-04-12T14:08:11.972Z,94793.75
2023-04-12T14:11:15.857Z,94786.44
2023-04-12T14:14:22.856Z,94788.59
2023-04-12T14:17:35.122Z,94785.91
2023-04-12T14:20:39.499Z,94786.13
2023-04-12T14:23:44.688Z,94775.66
2023-04-12T14:26:48.613Z,94780.50
2023-04-12T14:29:53.756Z,94772.34
2023-04-12T14:32:58.832Z,94776.72
2023-04-12T14:36:05.497Z,94773.00
2023-04-12T14:39:11.202Z,94777.94
2023-04-12T14:42:16.592Z,94758.00
2023-04-12T14:45:28.961Z,94761.31
2023-04-12T14:48:32.181Z,94755.13
2023-04-12T14:51:34.270Z,94751.34
2023-04-12T14:54:49.015Z,94746.25
2023-04-12T14:57:55.502Z,94758.00
2023-04-12T15:01:00.292Z,94747.56
2023-04-12T15:04:13.582Z,94752.66
2023-04-12T15:07:25.291Z,94735.59
2023-04-12T15:10:30.512Z,94737.94
2023-04-12T15:13:35.227Z,94752.53
2023-04-12T15:16:44.766Z,94753.34
2023-04-12T15:19:58.103Z,94751.19
2023-04-12T15:23:00.770Z,94743.38
2023-04-12T15:26:07.721Z,94744.50
2023-04-12T15:29:12.392Z,94744.94
2023-04-12T15:32:23.909Z,94737.91
2023-04-12T15:35:28.859Z,94734.63
2023-04-12T15:38:42.624Z,94741.25
2023-04-12T15:41:47.591Z,94722.28
2023-04-12T15:44:54.365Z,94727.44
2023-04-12T15:47:59.984Z,94730.44
2023-04-12T15:51:12.530Z,94711.00
2023-04-12T15:54:24.657Z,94720.78
2023-04-12T15:57:29.481Z,94716.72
2023-04-12T16:00:36.053Z,94727.88
2023-04-12T16:03:49.780Z,94714.88
2023-04-12T16:06:55.256Z,94720.34
2023-04-12T16:10:05.617Z,94722.28
2023-04-12T16:13:18.921Z,94705.81
2023-04-12T16:16:35.204Z,94708.09
2023-04-12T16:19:39.968Z,94714.53
2023-04-12T16:22:45.228Z,94723.69
2023-04-12T16:25:51.579Z,94713.63
2023-04-12T16:28:56.391Z,94715.97
2023-04-12T16:32:00.643Z,94711.22
2023-04-12T16:35:06.674Z,94705.13
2023-04-12T16:38:11.205Z,94712.44
2023-04-12T16:41:16.368Z,94707.81
2023-04-12T16:44:27.658Z,94720.28
2023-04-12T16:47:30.430Z,94712.06
2023-04-12T16:50:42.042Z,94704.06
2023-04-12T16:53:44.966Z,94701.44
2023-04-12T16:56:57.083Z,94708.75
2023-04-12T17:00:03.809Z,94701.16
2023-04-12T17:03:08.165Z,94695.00
2023-04-12T17:06:10.652Z,94700.22
2023-04-12T17:09:16.571Z,94688.25
2023-04-12T17:12:23.151Z,94691.81
2023-04-12T17:15:29.706Z,94703.88
2023-04-12T17:18:42.181Z,94699.78
2023-04-12T17:21:46.985Z,94700.41
2023-04-12T17:24:53.128Z,94698.38
2023-04-12T17:27:58.217Z,94701.09
2023-04-12T17:31:11.656Z,94693.47
2023-04-12T17:34:15.399Z,94701.56
2023-04-12T17:37:21.556Z,94694.78
2023-04-12T17:40:26.615Z,94709.25
2023-04-12T17:43:38.776Z,94713.81
2023-04-12T17:46:45.866Z,94702.34
2023-04-12T17:49:48.632Z,94713.06
2023-04-12T17:53:14.991Z,94707.72
2023-04-12T17:56:20.305Z,94719.09
2023-04-12T17:59:24.603Z,94728.19
2023-04-12T18:02:27.690Z,94725.91
2023-04-12T18:05:34.630Z,94725.53
2023-04-12T18:08:37.992Z,94738.50
2023-04-12T18:11:50.533Z,94755.22
2023-04-12T18:14:56.430Z,94771.09
2023-04-12T18:18:02.049Z,94783.03
2023-04-12T18:21:08.800Z,94779.72
2023-04-12T18:24:19.400Z,94788.38
2023-04-12T18:27:21.922Z,94793.25
2023-04-12T18:30:25.307Z,94814.25
2023-04-12T18:33:38.698Z,94816.69
2023-04-12T18:36:49.649Z,94815.44
2023-04-12T18:39:55.404Z,94814.59
2023-04-12T18:43:01.340Z,94825.91
2023-04-12T18:46:03.541Z,94833.72
2023-04-12T18:49:07.642Z,94838.38
2023-04-12T18:52:22.767Z,94844.31
2023-04-12T18:55:30.401Z,94855.34
2023-04-12T19:01:41.609Z,94859.56
2023-04-12T19:04:52.942Z,94862.41
2023-04-12T19:07:58.949Z,94873.78
2023-04-12T19:11:01.262Z,94868.34
2023-04-12T19:14:05.567Z,94882.06
2023-04-12T19:17:10.312Z,94878.53
2023-04-12T19:20:17.116Z,94872.91
2023-04-12T19:23:24.157Z,94876.81
2023-04-12T19:26:39.887Z,94881.03
2023-04-12T19:29:51.971Z,94883.91
2023-04-12T19:32:56.959Z,94878.09
2023-04-12T19:36:02.993Z,94884.47
2023-04-12T19:39:05.559Z,94880.53
2023-04-12T19:42:07.748Z,94889.56
2023-04-12T19:45:13.504Z,94879.72
2023-04-12T19:48:26.353Z,94871.47
2023-04-12T19:51:31.431Z,94884.59
2023-04-12T19:54:43.241Z,94880.66
2023-04-12T19:57:49.075Z,94883.34
2023-04-12T20:01:02.580Z,94890.88
2023-04-12T20:04:16.810Z,94890.88
2023-04-12T20:07:29.053Z,94887.78
2023-04-12T20:10:34.287Z,94901.50
2023-04-12T20:13:39.561Z,94907.41
2023-04-12T20:16:52.424Z,94907.16
2023-04-12T20:19:58.812Z,94917.19
2023-04-12T20:23:01.624Z,94913.88
2023-04-12T20:26:04.008Z,94941.38
2023-04-12T20:29:10.022Z,94939.47
2023-04-12T20:32:24.008Z,94949.97
2023-04-12T20:35:30.427Z,94951.06
2023-04-12T20:38:43.103Z,94951.25
2023-04-12T20:41:53.454Z,94952.84
2023-04-12T20:45:01.695Z,94951.94
2023-04-12T20:48:07.764Z,94958.00
2023-04-12T20:51:14.738Z,94960.94
2023-04-12T20:54:18.824Z,94965.84
2023-04-12T20:57:33.636Z,94968.03
2023-04-12T21:00:45.248Z,94966.09
2023-04-12T21:03:48.419Z,94952.50
2023-04-12T21:06:55.917Z,94957.84
2023-04-12T21:10:02.051Z,94953.25
2023-04-12T21:13:06.951Z,94964.25
2023-04-12T21:16:18.588Z,94959.28
2023-04-12T21:19:30.418Z,94965.66
2023-04-12T21:22:36.464Z,94973.81
2023-04-12T21:25:41.396Z,94964.34
2023-04-12T21:28:45.584Z,94969.03
2023-04-12T21:31:49.152Z,94971.88
2023-04-12T21:35:00.281Z,94983.72
2023-04-12T21:38:05.793Z,94984.91
2023-04-12T21:41:12.427Z,94961.47
2023-04-12T21:44:14.905Z,94963.97
2023-04-12T21:47:21.740Z,94962.66
2023-04-12T21:50:26.128Z,94967.16
2023-04-12T21:53:41.257Z,94971.03
2023-04-12T21:56:47.777Z,94969.56
2023-04-12T21:59:49.799Z,94970.09
2023-04-12T22:02:56.669Z,94963.13
2023-04-12T22:06:04.584Z,94967.78
2023-04-12T22:09:11.070Z,94975.13
2023-04-12T22:12:14.379Z,94978.63
2023-04-12T22:15:20.162Z,94983.13
2023-04-12T22:18:32.360Z,94980.66
2023-04-12T22:21:36.468Z,94984.31
2023-04-12T22:24:50.403Z,94980.00
2023-04-12T22:28:00.655Z,94987.16
2023-04-12T22:31:14.794Z,94988.16
2023-04-12T22:34:20.761Z,94984.03
2023-04-12T22:37:24.776Z,94990.38
2023-04-12T22:40:28.996Z,94991.56
2023-04-12T22:43:41.624Z,94990.91
2023-04-12T22:46:51.373Z,94998.44
2023-04-12T22:49:58.195Z,94998.59
2023-04-12T22:53:05.932Z,95012.47
2023-04-12T22:56:11.326Z,95008.78
2023-04-12T22:59:20.312Z,95020.63
2023-04-12T23:02:22.793Z,95031.44
2023-04-12T23:05:28.582Z,95032.81
2023-04-12T23:08:30.846Z,95047.97
2023-04-12T23:11:40.167Z,95049.97
2023-04-12T23:14:42.673Z,95047.47
2023-04-12T23:17:54.471Z,95048.84
2023-04-12T23:21:00.209Z,95058.50
2023-04-12T23:24:05.566Z,95066.81
2023-04-12T23:27:08.351Z,95061.22
2023-04-12T23:30:18.635Z,95066.53
2023-04-12T23:33:24.223Z,95071.56
2023-04-12T23:36:34.834Z,95074.38
2023-04-12T23:39:41.284Z,95070.59
2023-04-12T23:42:51.169Z,95055.84
2023-04-12T23:45:58.434Z,95067.31
2023-04-12T23:49:01.792Z,95069.84
2023-04-12T23:52:07.166Z,95077.50
2023-04-12T23:55:19.480Z,95070.88
2023-04-12T23:58:24.195Z,95061.22
